Time;durP1;ratioP1;P1;durP2;ratioP2;P2;SDS_P1;SDS_P2;PMS_P1;PMS_P2;Temp;Humidity;BMP_temperature;BMP_pressure;BME280_temperature;BME280_humidity;BME280_pressure;Samples;Min_cycle;Max_cycle;Signal;HPM_P1;HPM_P2
2023/08/28 00:02:24;;;;;;;1.98;0.98;;;;;;;13.56;65.34;99937.47;5091366;28;20055;-47
2023/08/28 00:04:51;;;;;;;3.35;1.50;;;;;;;13.54;65.78;99934.00;5084744;28;20477;-45
2023/08/28 00:07:17;;;;;;;2.35;1.23;;;;;;;13.52;65.64;99935.78;5087639;28;20396;-48
2023/08/28 00:09:44;;;;;;;2.35;1.30;;;;;;;13.49;65.20;99935.84;5084947;28;20048;-48
2023/08/28 00:12:10;;;;;;;2.30;1.67;;;;;;;13.47;64.92;99932.34;5085276;28;20055;-48
2023/08/28 00:14:37;;;;;;;3.42;1.38;;;;;;;13.43;65.28;99935.91;5085640;28;20044;-47
2023/08/28 00:17:05;;;;;;;3.38;1.10;;;;;;;13.39;65.87;99932.50;5084644;28;20548;-48
2023/08/28 00:19:32;;;;;;;2.55;1.35;;;;;;;13.36;66.30;99930.81;5083549;28;20052;-48
2023/08/28 00:21:58;;;;;;;1.83;1.00;;;;;;;13.35;65.47;99934.28;5084527;28;20052;-46
2023/08/28 00:24:25;;;;;;;5.05;1.52;;;;;;;13.32;66.41;99931.75;5085587;28;20075;-47
2023/08/28 00:26:51;;;;;;;3.80;1.40;;;;;;;13.30;66.48;99930.03;5084715;28;20596;-47
2023/08/28 00:29:18;;;;;;;4.40;1.80;;;;;;;13.28;65.97;99932.69;5083539;28;20141;-45
2023/08/28 00:31:45;;;;;;;3.75;1.30;;;;;;;13.26;66.14;99926.63;5085443;28;20048;-47
2023/08/28 00:34:11;;;;;;;3.65;1.30;;;;;;;13.24;66.43;99930.97;5081971;28;20051;-47
2023/08/28 00:36:38;;;;;;;3.30;1.30;;;;;;;13.21;66.18;99924.09;5082579;28;20631;-45
2023/08/28 00:39:04;;;;;;;2.90;1.05;;;;;;;13.20;66.95;99924.13;5083485;28;20451;-49
2023/08/28 00:41:31;;;;;;;3.72;1.48;;;;;;;13.19;66.65;99919.81;5083635;28;20044;-46
2023/08/28 00:43:58;;;;;;;2.95;1.50;;;;;;;13.16;66.49;99919.84;5083581;28;20048;-50
2023/08/28 00:46:25;;;;;;;3.85;1.40;;;;;;;13.16;67.13;99917.25;5083093;28;20048;-45
2023/08/28 00:48:52;;;;;;;7.60;1.63;;;;;;;13.14;67.39;99914.66;5082517;28;20044;-47
2023/08/28 00:51:19;;;;;;;2.88;1.60;;;;;;;13.14;67.03;99919.03;5083815;28;20067;-47
2023/08/28 00:53:45;;;;;;;3.30;1.02;;;;;;;13.13;67.67;99912.13;5082150;28;20059;-49
2023/08/28 00:56:12;;;;;;;4.03;1.10;;;;;;;13.12;67.04;99921.66;5086092;28;20151;-45
2023/08/28 00:58:39;;;;;;;2.53;1.30;;;;;;;13.13;67.29;99925.13;5082797;28;20040;-45
2023/08/28 01:01:06;;;;;;;2.00;1.13;;;;;;;13.10;67.45;99923.41;5070988;28;20052;-49
2023/08/28 01:03:32;;;;;;;3.63;1.40;;;;;;;13.09;67.64;99919.97;5081649;28;20172;-49
2023/08/28 01:06:16;;;;;;;3.58;1.50;;;;;;;13.08;68.15;99920.81;5085807;28;20605;-47
2023/08/28 01:11:40;;;;;;;5.93;1.80;;;;;;;13.08;68.37;99936.41;5045013;28;20398;-49
2023/08/28 01:14:15;;;;;;;6.15;2.03;;;;;;;13.08;67.92;99936.41;5019000;28;20418;-48
2023/08/28 01:16:44;;;;;;;6.25;2.25;;;;;;;13.08;68.50;99936.41;5019836;28;20073;-50
2023/08/28 01:19:24;;;;;;;3.20;1.83;;;;;;;13.06;67.69;99943.41;5023529;28;20059;-45
2023/08/28 01:21:58;;;;;;;3.88;1.35;;;;;;;13.06;68.42;99938.19;5018805;28;20073;-48
2023/08/28 01:24:30;;;;;;;6.25;1.88;;;;;;;13.05;68.80;99936.50;5023953;28;20464;-46
2023/08/28 01:26:58;;;;;;;5.13;2.10;;;;;;;13.03;67.87;99933.03;5021834;28;20461;-46
2023/08/28 01:29:26;;;;;;;5.25;2.03;;;;;;;13.02;68.17;99940.84;5015547;28;20042;-49
2023/08/28 01:31:53;;;;;;;5.97;2.03;;;;;;;13.00;68.10;99943.47;5020343;28;20057;-47
2023/08/28 01:34:20;;;;;;;4.90;1.92;;;;;;;13.00;68.22;99943.47;5021925;28;20049;-48
2023/08/28 01:36:53;;;;;;;4.88;2.42;;;;;;;13.00;68.27;99940.03;5019014;28;20057;-50
2023/08/28 01:39:26;;;;;;;5.75;2.10;;;;;;;13.00;68.89;99946.06;5018662;28;20064;-48
2023/08/28 01:41:53;;;;;;;4.70;1.52;;;;;;;13.01;68.44;99944.34;5017788;28;20049;-48
2023/08/28 01:44:22;;;;;;;3.95;1.98;;;;;;;13.03;68.51;99948.63;5022491;28;20103;-48
2023/08/28 01:46:49;;;;;;;4.75;2.00;;;;;;;13.03;68.27;99942.59;5016987;28;20059;-49
2023/08/28 01:49:15;;;;;;;4.38;2.03;;;;;;;13.05;69.24;99941.69;5020552;28;20487;-45
2023/08/28 01:51:43;;;;;;;6.85;2.50;;;;;;;13.05;69.25;99944.28;5017338;28;20058;-50
2023/08/28 01:54:10;;;;;;;5.35;2.35;;;;;;;13.04;68.36;99945.16;5017404;28;20495;-47
2023/08/28 01:56:36;;;;;;;5.18;1.98;;;;;;;13.02;68.04;99946.94;5020695;28;20415;-47
2023/08/28 01:59:03;;;;;;;4.28;2.05;;;;;;;12.99;68.66;99946.97;5021424;28;20060;-48
2023/08/28 02:01:30;;;;;;;4.95;1.90;;;;;;;12.98;68.31;99945.25;5034666;28;20041;-46
2023/08/28 02:03:57;;;;;;;4.20;2.33;;;;;;;12.95;69.22;99945.28;5037000;28;20045;-46
2023/08/28 02:06:24;;;;;;;5.75;2.17;;;;;;;12.92;68.31;99950.53;5035735;28;20701;-49
2023/08/28 02:08:50;;;;;;;4.78;2.15;;;;;;;12.88;69.17;99948.84;5036700;28;20041;-47
2023/08/28 02:11:17;;;;;;;7.63;2.25;;;;;;;12.87;69.20;99947.16;5037078;28;20469;-52
2023/08/28 02:13:44;;;;;;;4.88;2.17;;;;;;;12.82;68.07;99950.66;5035791;28;20510;-49
2023/08/28 02:16:10;;;;;;;4.38;2.10;;;;;;;12.80;68.55;99947.22;5042159;28;20045;-49
2023/08/28 02:18:37;;;;;;;4.72;2.22;;;;;;;12.79;68.45;99950.72;5039277;28;20392;-48
2023/08/28 02:21:04;;;;;;;4.55;2.30;;;;;;;12.76;68.50;99947.31;5032086;28;20052;-48
2023/08/28 02:23:30;;;;;;;5.53;2.00;;;;;;;12.73;68.49;99940.38;5025573;28;20415;-48
2023/08/28 02:25:57;;;;;;;4.75;2.20;;;;;;;12.72;68.04;99943.88;5027585;28;20053;-47
2023/08/28 02:28:25;;;;;;;5.10;2.20;;;;;;;12.69;68.32;99943.91;5027444;28;20076;-48
2023/08/28 02:30:52;;;;;;;5.78;2.28;;;;;;;12.66;68.02;99942.22;5025957;28;20068;-49
2023/08/28 02:33:18;;;;;;;6.18;2.30;;;;;;;12.66;69.10;99946.56;5026275;28;20056;-47
2023/08/28 02:35:45;;;;;;;5.35;2.65;;;;;;;12.63;69.19;99946.59;5022955;28;20045;-49
2023/08/28 02:38:12;;;;;;;6.82;2.65;;;;;;;12.62;69.38;99950.06;5026914;28;20185;-50
2023/08/28 02:40:39;;;;;;;5.80;3.00;;;;;;;12.59;69.27;99944.03;5021885;28;20050;-50
2023/08/28 02:43:06;;;;;;;7.60;3.20;;;;;;;12.57;69.52;99940.59;5025976;28;20546;-47
2023/08/28 02:45:40;;;;;;;5.63;2.70;;;;;;;12.55;68.44;99942.34;5022695;28;20049;-48
2023/08/28 02:48:09;;;;;;;5.50;2.50;;;;;;;12.55;68.60;99939.75;5020334;28;20054;-49
2023/08/28 02:50:36;;;;;;;7.18;2.78;;;;;;;12.54;69.12;99942.38;5021418;28;20183;-46
2023/08/28 02:53:03;;;;;;;5.30;2.78;;;;;;;12.54;69.51;99940.66;5025169;28;20053;-50
2023/08/28 02:55:38;;;;;;;5.68;2.90;;;;;;;12.53;69.12;99944.09;5027160;28;20045;-46
2023/08/28 02:58:05;;;;;;;8.90;3.10;;;;;;;12.55;69.93;99944.97;5022694;28;20061;-49
2023/08/28 03:00:33;;;;;;;4.72;2.75;;;;;;;12.55;69.36;99942.34;5026205;28;20045;-46
2023/08/28 03:03:00;;;;;;;6.88;3.75;;;;;;;12.54;69.90;99944.97;5022372;28;20136;-48
2023/08/28 03:05:28;;;;;;;6.28;3.42;;;;;;;12.51;68.66;99940.69;5022071;28;20057;-50
2023/08/28 03:07:54;;;;;;;7.43;3.97;;;;;;;12.49;69.03;99942.44;5018629;28;20045;-48
2023/08/28 03:10:22;;;;;;;5.43;3.08;;;;;;;12.46;68.68;99942.47;5023505;28;20597;-48
2023/08/28 03:12:48;;;;;;;7.03;3.83;;;;;;;12.44;69.31;99941.63;5018496;28;20490;-49
2023/08/28 03:15:15;;;;;;;6.97;2.95;;;;;;;12.42;69.93;99932.97;5020729;28;20060;-47
2023/08/28 03:17:42;;;;;;;8.80;3.10;;;;;;;12.40;69.54;99932.16;5025129;28;20744;-48
2023/08/28 03:20:10;;;;;;;6.57;3.50;;;;;;;12.40;69.14;99932.16;5021937;28;20041;-48
2023/08/28 03:22:36;;;;;;;6.32;2.80;;;;;;;12.39;69.64;99925.25;5026345;28;20156;-50
2023/08/28 03:25:04;;;;;;;9.15;3.30;;;;;;;12.38;68.94;99923.50;5027231;28;20121;-47
2023/08/28 03:27:31;;;;;;;7.22;3.60;;;;;;;12.35;69.32;99919.22;5023820;28;20077;-47
2023/08/28 03:29:58;;;;;;;7.13;3.17;;;;;;;12.35;70.24;99919.22;5022344;28;20054;-47
2023/08/28 03:32:25;;;;;;;7.40;3.83;;;;;;;12.33;69.54;99916.63;5019501;28;20056;-46
2023/08/28 03:34:51;;;;;;;10.02;3.47;;;;;;;12.33;69.46;99921.00;5020644;28;20095;-46
2023/08/28 03:37:18;;;;;;;10.68;3.65;;;;;;;12.32;68.95;99914.94;5023019;28;20548;-50
2023/08/28 03:39:45;;;;;;;6.95;3.28;;;;;;;12.32;70.30;99925.31;5024254;28;20051;-50
2023/08/28 03:42:11;;;;;;;10.38;3.28;;;;;;;12.31;69.30;99914.94;5019169;28;20051;-46
2023/08/28 03:44:38;;;;;;;8.75;3.70;;;;;;;12.31;69.66;99912.34;5023343;28;20045;-51
2023/08/28 03:47:05;;;;;;;8.90;3.90;;;;;;;12.29;69.92;99920.16;5021937;28;20544;-48
2023/08/28 03:49:31;;;;;;;8.23;3.22;;;;;;;12.28;70.50;99921.03;5021135;28;20505;-46
2023/08/28 03:51:59;;;;;;;7.30;3.40;;;;;;;12.28;70.41;99918.44;5021058;28;20037;-47
2023/08/28 03:54:27;;;;;;;6.43;3.05;;;;;;;12.29;69.67;99920.16;5024043;28;20053;-45
2023/08/28 03:56:54;;;;;;;7.53;3.75;;;;;;;12.30;69.32;99914.06;5019946;28;20045;-48
2023/08/28 03:59:22;;;;;;;8.35;3.53;;;;;;;12.32;70.67;99914.06;5015506;28;20072;-48
2023/08/28 04:01:49;;;;;;;8.30;3.05;;;;;;;12.33;69.62;99916.63;5023490;28;20045;-47
2023/08/28 04:04:16;;;;;;;9.60;3.83;;;;;;;12.36;70.71;99920.09;5019334;28;20045;-49
2023/08/28 04:06:43;;;;;;;8.40;3.58;;;;;;;12.39;69.42;99914.88;5023182;28;20132;-48
2023/08/28 04:09:10;;;;;;;10.23;3.33;;;;;;;12.43;70.66;99921.75;5022663;28;20637;-47
2023/08/28 04:11:36;;;;;;;10.25;3.70;;;;;;;12.48;70.61;99919.94;5021356;28;20053;-49
2023/08/28 04:14:03;;;;;;;8.70;4.65;;;;;;;12.51;70.08;99919.03;5022874;28;20045;-50
2023/08/28 04:16:30;;;;;;;9.20;4.05;;;;;;;12.56;70.67;99925.88;5021624;28;20049;-49
2023/08/28 04:18:57;;;;;;;7.85;3.42;;;;;;;12.59;71.04;99923.25;5020347;28;20180;-49
2023/08/28 04:21:23;;;;;;;8.10;2.85;;;;;;;12.64;71.22;99928.41;5021700;28;20041;-48
2023/08/28 04:23:50;;;;;;;8.68;3.75;;;;;;;12.70;71.08;99924.84;5024047;28;20046;-46
2023/08/28 04:26:17;;;;;;;8.00;3.78;;;;;;;12.72;70.46;99923.09;5018862;28;20057;-48
2023/08/28 04:28:43;;;;;;;9.45;4.28;;;;;;;12.76;71.40;99923.91;5020330;28;20569;-49
2023/08/28 04:31:11;;;;;;;8.52;3.92;;;;;;;12.79;70.67;99916.91;5023550;28;20037;-49
2023/08/28 04:33:38;;;;;;;8.25;3.80;;;;;;;12.79;70.88;99916.91;5024526;28;20069;-47
2023/08/28 04:36:05;;;;;;;8.15;3.50;;;;;;;12.80;71.29;99921.22;5016761;28;20107;-49
2023/08/28 04:38:31;;;;;;;9.77;4.20;;;;;;;12.80;70.15;99923.84;5019764;28;20048;-46
2023/08/28 04:40:58;;;;;;;7.00;3.28;;;;;;;12.78;70.67;99923.00;5022987;28;20189;-48
2023/08/28 04:43:25;;;;;;;7.65;3.17;;;;;;;12.78;70.94;99929.94;5024699;28;20053;-48
2023/08/28 04:45:52;;;;;;;8.85;3.20;;;;;;;12.74;71.05;99931.72;5024816;28;20056;-50
2023/08/28 04:48:19;;;;;;;7.10;3.30;;;;;;;12.72;70.88;99928.28;5017408;28;20084;-48
2023/08/28 04:50:46;;;;;;;7.65;3.80;;;;;;;12.68;71.27;99922.28;5019434;28;20053;-47
2023/08/28 04:53:12;;;;;;;7.47;3.97;;;;;;;12.66;71.07;99928.38;5023815;28;20072;-49
2023/08/28 04:55:39;;;;;;;10.63;3.70;;;;;;;12.62;70.84;99926.66;5024302;28;20072;-47
2023/08/28 04:58:06;;;;;;;7.68;3.33;;;;;;;12.60;71.11;99939.72;5018144;28;20049;-49
2023/08/28 05:00:33;;;;;;;8.07;3.92;;;;;;;12.59;70.50;99937.97;5020385;28;20052;-48
2023/08/28 05:03:00;;;;;;;6.80;3.03;;;;;;;12.58;70.49;99942.31;5018536;28;20060;-48
2023/08/28 05:05:27;;;;;;;8.70;3.58;;;;;;;12.58;71.04;99942.31;5022595;28;20054;-46
2023/08/28 05:07:54;;;;;;;7.72;3.75;;;;;;;12.57;70.32;99945.78;5024284;28;20045;-50
2023/08/28 05:10:20;;;;;;;8.23;3.78;;;;;;;12.54;70.83;99940.66;5020065;28;20049;-49
2023/08/28 05:12:47;;;;;;;6.95;4.05;;;;;;;12.51;70.09;99945.88;5016662;28;20052;-51
2023/08/28 05:15:14;;;;;;;8.30;3.35;;;;;;;12.47;70.74;99950.22;5020484;28;20111;-51
2023/08/28 05:17:40;;;;;;;9.30;4.05;;;;;;;12.47;70.22;99941.59;5024482;28;20041;-49
2023/08/28 05:20:08;;;;;;;9.02;3.55;;;;;;;12.46;71.13;99945.94;5021640;28;20052;-48
2023/08/28 05:22:34;;;;;;;8.75;3.38;;;;;;;12.47;70.34;99949.41;5019723;28;20049;-49
2023/08/28 05:25:01;;;;;;;8.15;3.30;;;;;;;12.50;71.29;99957.13;5024930;28;20120;-48
2023/08/28 05:27:27;;;;;;;9.07;3.55;;;;;;;12.52;70.44;99950.19;5013017;28;20507;-52
2023/08/28 05:29:54;;;;;;;9.55;4.07;;;;;;;12.56;70.42;99948.41;5016499;28;20049;-48
2023/08/28 05:32:21;;;;;;;6.82;3.30;;;;;;;12.62;71.04;99952.66;5019932;28;20057;-49
2023/08/28 05:34:47;;;;;;;9.35;3.85;;;;;;;12.66;70.98;99954.38;5023297;28;20052;-45
2023/08/28 05:37:17;;;;;;;7.95;3.83;;;;;;;12.70;70.59;99961.25;5019372;28;20405;-51
2023/08/28 05:39:44;;;;;;;8.63;4.05;;;;;;;12.75;72.19;99967.22;5019307;28;20045;-48
2023/08/28 05:42:10;;;;;;;9.23;4.03;;;;;;;12.79;71.12;99971.50;5017104;28;20046;-48
2023/08/28 05:44:37;;;;;;;8.77;4.20;;;;;;;12.82;71.77;99971.47;5020005;28;20052;-50
2023/08/28 05:47:04;;;;;;;11.77;4.38;;;;;;;12.88;71.30;99974.84;5022905;28;20064;-49
2023/08/28 05:49:31;;;;;;;11.43;4.20;;;;;;;12.90;71.61;99986.09;5023140;28;20112;-49
2023/08/28 05:51:58;;;;;;;10.23;4.75;;;;;;;12.95;70.85;99986.88;5013405;28;20501;-50
2023/08/28 05:54:25;;;;;;;8.65;3.83;;;;;;;13.00;72.03;99992.88;5018234;28;20045;-48
2023/08/28 05:56:52;;;;;;;11.30;5.05;;;;;;;13.09;70.81;99987.56;5017531;28;20513;-54
2023/08/28 05:59:19;;;;;;;12.35;4.97;;;;;;;13.17;71.60;99991.81;5019560;28;20074;-48
2023/08/28 06:01:45;;;;;;;10.82;4.28;;;;;;;13.22;71.70;99993.47;5021265;28;20053;-49
2023/08/28 06:04:12;;;;;;;10.45;5.15;;;;;;;13.28;71.87;99989.91;5023395;28;20060;-49
2023/08/28 06:06:39;;;;;;;10.68;4.80;;;;;;;13.35;71.57;99991.50;5021096;28;20601;-49
2023/08/28 06:09:06;;;;;;;11.00;4.97;;;;;;;13.41;71.50;99990.56;5025471;28;20065;-51
2023/08/28 06:11:33;;;;;;;11.95;5.55;;;;;;;13.50;71.50;99992.19;5021258;28;20052;-49
2023/08/28 06:14:00;;;;;;;9.98;4.72;;;;;;;13.57;71.87;99980.81;5023827;28;20085;-50
2023/08/28 06:16:26;;;;;;;9.80;4.45;;;;;;;13.62;72.65;99984.19;5024989;28;20054;-52
2023/08/28 06:18:54;;;;;;;10.73;5.15;;;;;;;13.70;71.96;99989.28;5026180;28;20046;-47
2023/08/28 06:21:20;;;;;;;11.15;4.68;;;;;;;13.76;71.95;99993.50;5022139;28;20061;-48
2023/08/28 06:23:47;;;;;;;9.55;4.78;;;;;;;13.84;72.30;99989.03;5022903;28;20056;-48
2023/08/28 06:26:14;;;;;;;11.65;5.50;;;;;;;13.93;71.88;99998.44;5020970;28;20057;-48
2023/08/28 06:28:40;;;;;;;10.52;4.40;;;;;;;14.04;72.43;99999.97;5017206;28;20049;-47
2023/08/28 06:31:07;;;;;;;9.48;4.68;;;;;;;14.12;72.82;99996.34;5019069;28;20053;-47
2023/08/28 06:33:34;;;;;;;7.57;3.30;;;;;;;14.22;72.42;99996.19;5020729;28;20071;-49
2023/08/28 06:36:02;;;;;;;9.13;3.83;;;;;;;14.33;71.83;99996.84;5023461;28;20589;-48
2023/08/28 06:38:28;;;;;;;7.18;3.45;;;;;;;14.46;72.43;100001.81;5018434;28;20057;-47
2023/08/28 06:40:55;;;;;;;7.57;4.05;;;;;;;14.61;71.77;100006.72;5017242;28;20053;-49
2023/08/28 06:43:22;;;;;;;9.05;3.97;;;;;;;14.72;72.53;99998.69;5018137;28;20049;-50
2023/08/28 06:45:49;;;;;;;7.18;3.33;;;;;;;14.81;71.75;100007.22;5022085;28;20537;-48
2023/08/28 06:48:15;;;;;;;7.63;3.92;;;;;;;14.89;71.95;100011.41;5022438;28;20501;-50
2023/08/28 06:50:42;;;;;;;7.70;3.90;;;;;;;14.97;71.85;100011.25;5023504;28;20057;-49
2023/08/28 06:53:09;;;;;;;8.20;4.00;;;;;;;15.12;71.62;100011.78;5022130;28;20049;-53
2023/08/28 06:55:36;;;;;;;7.25;3.35;;;;;;;15.38;72.13;100016.41;5021907;28;20529;-51
2023/08/28 06:58:03;;;;;;;7.82;3.10;;;;;;;15.55;71.37;100023.00;5023510;28;20045;-49
2023/08/28 07:00:30;;;;;;;6.65;3.33;;;;;;;15.64;71.27;100014.91;5021916;28;20144;-50
2023/08/28 07:02:58;;;;;;;7.25;3.00;;;;;;;15.82;71.14;100018.00;5023512;28;20072;-48
2023/08/28 07:05:25;;;;;;;4.97;2.83;;;;;;;16.21;70.61;100013.56;5022753;28;20077;-46
2023/08/28 07:07:51;;;;;;;9.38;3.25;;;;;;;16.56;70.65;100015.19;5021765;28;20077;-49
2023/08/28 07:10:18;;;;;;;4.90;2.80;;;;;;;16.80;70.14;100014.53;5012923;28;20410;-51
2023/08/28 07:12:45;;;;;;;4.20;2.33;;;;;;;16.86;69.44;100016.97;5015769;28;20050;-54
2023/08/28 07:17:55;;;;;;;3.13;1.70;;;;;;;16.85;69.81;100025.72;5041646;27;20511;-49
2023/08/28 07:20:23;;;;;;;3.22;1.98;;;;;;;16.86;69.35;100037.91;5004603;28;20045;-47
2023/08/28 07:22:51;;;;;;;4.85;1.92;;;;;;;16.85;69.83;100030.09;5020226;28;20049;-51
2023/08/28 07:25:21;;;;;;;3.92;2.10;;;;;;;16.79;69.77;100036.38;5009607;28;20058;-50
2023/08/28 07:27:49;;;;;;;2.72;1.60;;;;;;;16.75;69.41;100038.19;5021143;28;20061;-46
2023/08/28 07:30:16;;;;;;;2.83;1.80;;;;;;;16.77;69.52;100038.16;5007886;28;20538;-50
2023/08/28 07:32:43;;;;;;;3.97;1.60;;;;;;;16.75;69.44;100035.56;5007596;28;20046;-52
2023/08/28 07:35:10;;;;;;;5.18;2.22;;;;;;;16.78;69.14;100034.63;5014428;28;20045;-48
2023/08/28 07:37:37;;;;;;;3.08;1.77;;;;;;;16.80;69.32;100041.56;5029130;28;20052;-49
2023/08/28 07:40:05;;;;;;;4.75;1.73;;;;;;;16.83;69.29;100038.81;5025576;28;20041;-49
2023/08/28 07:42:33;;;;;;;4.20;1.75;;;;;;;16.84;69.31;100034.47;5036781;28;20049;-52
2023/08/28 07:45:00;;;;;;;3.47;1.52;;;;;;;16.84;69.21;100037.06;5025832;28;20041;-48
2023/08/28 07:47:27;;;;;;;3.97;1.40;;;;;;;16.83;69.54;100038.00;5014575;28;20085;-52
2023/08/28 07:49:54;;;;;;;3.60;2.00;;;;;;;16.81;69.51;100034.53;5004518;28;20049;-48
2023/08/28 07:52:21;;;;;;;3.28;1.67;;;;;;;16.84;69.00;100039.69;4998570;28;20049;-49
2023/08/28 07:54:47;;;;;;;3.85;2.25;;;;;;;16.88;68.78;100038.69;5001572;28;20088;-47
2023/08/28 07:57:14;;;;;;;3.58;1.40;;;;;;;16.95;68.71;100031.53;5018893;28;20061;-49
2023/08/28 07:59:41;;;;;;;2.85;1.48;;;;;;;17.01;69.23;100038.34;5004787;28;20053;-48
2023/08/28 08:02:07;;;;;;;2.58;1.45;;;;;;;17.09;68.73;100039.84;5004942;28;20050;-52
2023/08/28 08:04:36;;;;;;;3.60;1.73;;;;;;;17.23;69.51;100048.19;4991325;28;20124;-47
2023/08/28 08:07:03;;;;;;;3.72;1.45;;;;;;;17.34;69.04;100051.34;5025795;28;20116;-49
2023/08/28 08:09:29;;;;;;;2.50;1.42;;;;;;;17.44;68.58;100050.16;5018605;28;20050;-50
2023/08/28 08:11:56;;;;;;;3.03;1.95;;;;;;;17.53;68.25;100053.41;5005494;28;20053;-47
2023/08/28 08:14:23;;;;;;;2.65;1.40;;;;;;;17.61;68.33;100061.84;4999132;28;20447;-51
2023/08/28 08:16:50;;;;;;;3.10;1.77;;;;;;;17.66;67.46;100059.09;4996502;28;20394;-48
2023/08/28 08:19:16;;;;;;;3.85;1.88;;;;;;;17.71;67.34;100065.91;4998161;28;20046;-49
2023/08/28 08:21:43;;;;;;;3.80;2.05;;;;;;;17.72;67.54;100065.00;4994646;28;20133;-50
2023/08/28 08:24:10;;;;;;;2.17;1.60;;;;;;;17.71;67.12;100065.91;4998665;28;20077;-53
2023/08/28 08:26:36;;;;;;;1.88;1.10;;;;;;;17.74;67.20;100067.56;4996484;28;20042;-49
2023/08/28 08:29:03;;;;;;;2.70;1.40;;;;;;;17.73;66.73;100066.69;4987921;28;20046;-52
2023/08/28 08:31:30;;;;;;;3.22;1.45;;;;;;;17.78;66.79;100070.91;4982503;28;20069;-51
2023/08/28 08:33:57;;;;;;;2.85;1.20;;;;;;;17.90;66.35;100073.13;4986676;28;20100;-50
2023/08/28 08:36:24;;;;;;;4.05;1.52;;;;;;;17.99;66.76;100067.59;4985060;28;20042;-47
2023/08/28 08:38:51;;;;;;;3.58;1.25;;;;;;;18.10;66.24;100074.25;4984304;28;20046;-51
2023/08/28 08:41:17;;;;;;;3.42;1.48;;;;;;;18.27;66.24;100059.75;4984682;28;20070;-47
2023/08/28 08:43:44;;;;;;;3.53;1.42;;;;;;;18.42;66.15;100069.69;4984244;28;20427;-51
2023/08/28 08:46:11;;;;;;;2.88;1.30;;;;;;;18.62;65.46;100068.13;4986147;28;20054;-52
2023/08/28 08:48:41;;;;;;;3.53;1.13;;;;;;;18.82;65.10;100066.53;4985124;28;20054;-46
2023/08/28 08:51:08;;;;;;;4.75;1.45;;;;;;;18.96;64.60;100069.50;4984075;28;20055;-49
2023/08/28 08:56:23;;;;;;;1.73;0.70;;;;;;;19.18;63.70;100068.72;5071900;27;20784;-52
2023/08/28 08:58:50;;;;;;;1.83;0.93;;;;;;;19.24;63.10;100057.97;5066593;28;20043;-49
2023/08/28 09:01:16;;;;;;;1.70;0.85;;;;;;;19.27;62.39;100057.00;5067290;28;20065;-50
2023/08/28 09:03:44;;;;;;;2.72;1.35;;;;;;;19.34;62.89;100062.88;5066532;28;20059;-51
2023/08/28 09:06:12;;;;;;;2.65;0.95;;;;;;;19.41;62.05;100066.97;5069570;28;20058;-51
2023/08/28 09:08:42;;;;;;;3.03;0.73;;;;;;;19.57;61.55;100069.84;5065934;28;20049;-47
2023/08/28 09:11:09;;;;;;;3.60;1.23;;;;;;;19.71;60.86;100058.78;5067678;28;20052;-49
2023/08/28 09:13:37;;;;;;;5.13;1.70;;;;;;;19.78;59.78;100065.50;5074038;28;20044;-50
2023/08/28 09:16:04;;;;;;;3.28;1.60;;;;;;;19.84;59.78;100055.63;5069473;28;20401;-51
2023/08/28 09:18:31;;;;;;;3.28;0.95;;;;;;;19.81;59.36;100050.50;5068802;28;20052;-48
2023/08/28 09:21:07;;;;;;;2.97;0.95;;;;;;;19.85;59.09;100057.34;5070665;28;20059;-49
2023/08/28 09:23:40;;;;;;;3.85;1.65;;;;;;;19.87;58.58;100059.00;5068535;28;20381;-47
2023/08/28 09:26:13;;;;;;;3.25;0.80;;;;;;;19.96;57.85;100064.78;5064189;28;20091;-49
2023/08/28 09:28:39;;;;;;;4.05;1.38;;;;;;;20.19;57.45;100058.59;5068380;28;20733;-48
2023/08/28 09:31:06;;;;;;;1.75;0.90;;;;;;;20.46;56.89;100063.56;5069501;28;20044;-48
2023/08/28 09:33:44;;;;;;;4.30;0.85;;;;;;;20.65;56.37;100054.84;5068475;28;20051;-47
2023/08/28 09:36:34;;;;;;;4.75;0.80;;;;;;;20.89;55.78;100059.97;5071631;28;20043;-49
2023/08/28 09:39:04;;;;;;;2.70;0.52;;;;;;;21.14;55.08;100054.41;5067130;28;20040;-48
2023/08/28 09:41:48;;;;;;;4.50;1.08;;;;;;;21.34;54.96;100051.78;5070681;28;20072;-48
2023/08/28 09:44:16;;;;;;;2.47;1.35;;;;;;;21.46;54.60;100048.53;5067923;28;20051;-50
2023/08/28 09:46:45;;;;;;;5.38;1.40;;;;;;;21.62;53.56;100047.78;5067277;28;20041;-50
2023/08/28 09:49:13;;;;;;;5.57;1.13;;;;;;;21.69;53.25;100044.75;5075859;28;20059;-50
2023/08/28 09:51:46;;;;;;;3.95;1.00;;;;;;;21.69;53.11;100043.94;5067797;28;20048;-46
2023/08/28 09:54:15;;;;;;;2.72;0.70;;;;;;;21.66;52.73;100049.34;5069545;28;20080;-47
2023/08/28 09:56:43;;;;;;;3.55;0.80;;;;;;;21.67;52.82;100051.03;5067692;28;20061;-47
2023/08/28 09:59:12;;;;;;;2.47;0.90;;;;;;;21.67;52.07;100041.38;5068768;28;20135;-50
2023/08/28 10:01:38;;;;;;;3.17;0.65;;;;;;;21.58;51.98;100037.38;5071823;28;20048;-50
2023/08/28 10:04:07;;;;;;;3.35;1.08;;;;;;;21.56;52.04;100044.53;5067889;28;20056;-47
2023/08/28 10:06:38;;;;;;;2.08;1.10;;;;;;;21.52;51.61;100050.84;5065834;28;20052;-50
2023/08/28 10:09:10;;;;;;;2.35;0.50;;;;;;;21.55;52.13;100048.06;5062183;28;20056;-49
2023/08/28 10:11:39;;;;;;;4.43;0.77;;;;;;;21.64;51.70;100046.78;5065435;28;20052;-51
2023/08/28 10:14:06;;;;;;;2.53;0.93;;;;;;;21.77;50.28;100041.78;5065481;28;20057;-52
2023/08/28 10:16:41;;;;;;;2.28;0.95;;;;;;;21.87;50.65;100046.59;5060159;28;20040;-50
2023/08/28 10:21:45;;;;;;;4.20;1.73;;;;;;;22.21;49.38;100039.59;5026556;27;20398;-51
2023/08/28 10:24:17;;;;;;;3.03;1.52;;;;;;;22.40;49.03;100044.78;5009674;28;20045;-51
2023/08/28 10:26:46;;;;;;;3.78;1.70;;;;;;;22.52;48.69;100048.53;5005730;28;20053;-49
2023/08/28 10:29:17;;;;;;;3.08;2.80;;;;;;;22.62;48.65;100042.81;5006020;28;20057;-50
2023/08/28 10:31:44;;;;;;;4.97;1.95;;;;;;;22.68;47.98;100047.75;5003404;28;20058;-51
2023/08/28 10:34:12;;;;;;;5.00;1.77;;;;;;;22.69;48.52;100049.44;5005845;28;20050;-49
2023/08/28 10:36:40;;;;;;;4.00;2.13;;;;;;;22.71;48.31;100047.59;5013841;28;20080;-51
2023/08/28 10:39:28;;;;;;;;;;;;;;;22.56;47.89;100050.13;5007806;28;20123;-48
2023/08/28 10:41:55;;;;;;;5.40;1.92;;;;;;;22.44;48.24;100050.75;5008809;28;19934;-49
2023/08/28 10:44:23;;;;;;;2.40;1.63;;;;;;;22.25;48.55;100051.69;5003965;28;20049;-49
2023/08/28 10:46:51;;;;;;;6.28;1.23;;;;;;;22.12;49.09;100055.91;5012129;28;20454;-49
2023/08/28 10:49:18;;;;;;;2.92;0.80;;;;;;;22.12;48.94;100055.91;5010907;28;20521;-48
2023/08/28 10:51:46;;;;;;;3.50;2.15;;;;;;;22.04;49.13;100053.66;5011358;28;20050;-49
2023/08/28 10:54:12;;;;;;;6.32;2.03;;;;;;;21.92;48.86;100048.06;5005542;28;20053;-49
2023/08/28 10:56:39;;;;;;;3.55;1.67;;;;;;;21.75;48.94;100045.44;5008671;28;20045;-48
2023/08/28 10:59:26;;;;;;;3.67;1.52;;;;;;;21.51;48.74;100050.97;5009873;28;20053;-49
2023/08/28 11:01:55;;;;;;;3.83;1.65;;;;;;;21.42;49.57;100055.72;5000106;28;20038;-48
2023/08/28 11:04:24;;;;;;;3.35;1.65;;;;;;;21.29;49.73;100052.84;5005625;28;20076;-51
2023/08/28 11:06:51;;;;;;;3.45;1.63;;;;;;;21.14;49.67;100056.22;5008272;28;20073;-49
2023/08/28 11:09:36;;;;;;;4.15;1.67;;;;;;;20.99;49.63;100061.25;4998830;28;20049;-51
2023/08/28 11:14:55;;;;;;;4.63;2.15;;;;;;;21.25;48.63;100056.56;5043739;28;20424;-47
2023/08/28 11:17:23;;;;;;;3.08;1.30;;;;;;;21.04;49.17;100058.41;5012481;28;20069;-50
2023/08/28 11:25:34;;;;;;;8.32;1.13;;;;;;;21.23;49.86;100063.66;5027074;28;20521;-51
2023/08/28 11:28:01;;;;;;;2.60;0.70;;;;;;;21.34;49.48;100060.50;5003281;28;20061;-51
2023/08/28 11:30:29;;;;;;;2.75;0.63;;;;;;;21.43;49.34;100059.22;5009941;28;20052;-48
2023/08/28 11:32:56;;;;;;;4.57;0.80;;;;;;;21.50;48.49;100055.38;5005284;28;20129;-50
2023/08/28 11:35:23;;;;;;;2.75;0.55;;;;;;;21.61;48.89;100054.84;5011328;28;20080;-49
2023/08/28 11:37:53;;;;;;;2.75;0.63;;;;;;;21.77;49.05;100051.47;5009344;28;20088;-50
2023/08/28 11:40:22;;;;;;;2.78;1.25;;;;;;;21.91;48.25;100059.56;5006038;28;20059;-49
2023/08/28 11:42:50;;;;;;;4.43;0.80;;;;;;;22.02;47.86;100050.25;5002784;28;20054;-47
2023/08/28 11:45:19;;;;;;;3.58;0.80;;;;;;;22.02;46.90;100051.09;5011767;28;20120;-48
2023/08/28 11:47:51;;;;;;;1.88;0.60;;;;;;;22.09;47.40;100055.13;5000726;28;20046;-50
2023/08/28 11:50:18;;;;;;;2.03;0.82;;;;;;;22.20;48.02;100045.81;5009388;28;20495;-45
2023/08/28 11:52:49;;;;;;;3.90;0.52;;;;;;;22.25;46.75;100056.97;5004655;28;20057;-49